Tiempo atmosférico en la estación meteorológica de Carcaixent, València/Valencia (25 m.)



Fecha
DESCASC
Temp. máxima en grados centígrados (hora)
DESCASC
Temp. mínima en grados centígrados (hora)
DESCASC
Temp. media en grados centígrados
DESCASC
Racha de viento máxima en m/sg (hora)
DESCASC
Velocidad máxima media en intervalos de 10 minutos(hora)
DESCASC
Precipitaciones diarias en mm
DESCASC
Precipitaciones de 00:00 a 06:00 en mm
DESCASC
Precipitaciones de 06:00 a 12:00 en mm
DESCASC
Precipitaciones de 12:00 a 18:00 en mm
DESCASC
Precipitaciones de 18:00 a 24:00 en mm
DESCASC
20-05-2018 27.5 (15:00) 9.7 (04:30) 18.6 8.89 (15:40) 5 (14:50) 0 0 0 0 0
19-05-2018 27.2 (16:30) 10.4 (05:00) 18.8 12.5 (16:50) 4.44 (13:20) 0 0 0 0 0
18-05-2018 26.4 (14:30) 11.7 (00:00) 19 10 (15:00) 5.83 (15:00) 0 0 0 0 0
17-05-2018 25.5 (16:10) 8.5 (00:00) 17 11.11 (13:00) 5.28 (16:50) 0 0 0 0 0
16-05-2018 26.3 (14:20) 10.3 (00:00) 18.3 9.72 (14:20) 5.83 (13:50) 0 0 0 0 0
15-05-2018 24.6 (14:20) 8.4 (00:00) 16.5 7.78 (16:50) 4.72 (16:30) 0 0 0 0 0
14-05-2018 26.4 (17:50) 8.9 (00:00) 17.6 6.67 (18:00) 3.33 (18:10) 0 0 0 0 0
13-05-2018 26.3 (17:30) 8.9 (00:00) 17.6 10.83 (18:30) 5.28 (01:10) 0 0 0 0 0
12-05-2018 30.7 (17:40) 13.1 (00:00) 21.9 11.11 (19:50) 6.67 (20:40) 0 0 0 0 0
11-05-2018 29.6 (17:20) 12.1 (03:10) 20.9 7.5 (22:40) 4.72 (22:40) 0 0 0 0 0
10-05-2018 24.8 (17:10) 15.2 (00:00) 20 10.56 (19:10) 5.83 (17:50) 6 6 0 0 0
09-05-2018 30.9 (14:40) 13.2 (00:00) 22 13.89 (16:30) 7.22 (16:30) 0.4 0 0 0.4 0
08-05-2018 29.3 (14:20) 11.3 (00:00) 20.3 10 (14:50) 5.83 (14:50) 0 0 0 0 0
07-05-2018 27.2 (15:30) 11.2 (00:00) 19.2 8.33 (18:30) 5.28 (17:50) 0 0 0 0 0
06-05-2018 26.5 (15:50) 10.7 (04:20) 18.6 9.17 (15:30) 4.72 (15:30) 0 0 0 0 0
05-05-2018 27.3 (14:20) 10.5 (00:00) 18.9 10.56 (16:40) 6.39 (16:30) 0.2 0.2 0 0 0
04-05-2018 24.2 (17:20) 6.8 (00:00) 15.5 6.94 (17:40) 3.61 (17:40) 0 0 0 0 0
03-05-2018 27.8 (15:00) 11.6 (00:00) 19.7 11.67 (17:30) 6.67 (17:20) 0 0 0 0 0
02-05-2018 26.3 (16:00) 6.6 (00:00) 16.4 12.22 (17:10) 6.11 (18:40) 0 0 0 0 0
01-05-2018 21.4 (16:20) 6.4 (06:10) 13.9 9.44 (19:40) 5.83 (18:20) 0 0 0 0 0
30-04-2018 21.6 (15:30) 7.2 (00:00) 14.4 9.44 (13:50) 5.28 (13:40) 0 0 0 0 0
29-04-2018 22.2 (15:10) 10.4 (00:00) 16.3 17.22 (15:40) 9.72 (14:30) 0 0 0 0 0
28-04-2018 25.9 (14:10) 15.6 (00:00) 20.8 11.11 (16:30) 6.39 (16:40) 0 0 0 0 0
27-04-2018 32.4 (14:40) 10.5 (00:00) 21.5 11.11 (16:20) 5.83 (16:50) 3 0 0 0.4 2.6
26-04-2018 24.7 (17:40) 12.9 (00:00) 18.8 8.89 (15:10) 5.28 (15:10) 0 0 0 0 0
25-04-2018 24.1 (16:10) 11.1 (00:00) 17.6 7.78 (17:40) 5.28 (17:30) 0 0 0 0 0
24-04-2018 23.8 (17:50) 10.1 (00:00) 16.9 6.94 (13:40) 4.17 (16:20) 0 0 0 0 0
23-04-2018 26.5 (15:40) 11.4 (02:40) 18.9 7.78 (15:30) 4.44 (15:40) 0 0 0 0 0
22-04-2018 25.4 (14:20) 10.7 (00:00) 18 8.61 (17:40) 4.72 (13:50) 0 0 0 0 0

Gráficas

Temp. máximas Temp. mínimas Temp. medias Precipitaciones Rachas de viento máximas Velocidades máximas media en intervalos de 10 minutos

Datos horarios

Fecha y hora oficial Temperatura (ºC) Velocidad del viento (km/h) Dirección del viento Racha (km/h) Dirección de racha Precipitación (mm) Presión (hPa) Tendencia (hPa) Humedad (%)
2018-05-21 23:00:00 16.1 0 Calma 9 Este 0 -- -- 75
2018-05-21 22:00:00 18.1 6 Este 9 Noroeste 0 -- -- 71
2018-05-21 21:00:00 20.5 7 Norte 18 Nordeste 0 -- -- 61
2018-05-21 20:00:00 22.6 13 Nordeste 22 Nordeste 0 -- -- 51
2018-05-21 19:00:00 24.3 6 Nordeste 26 Nordeste 0 -- -- 45
2018-05-21 18:00:00 24.4 14 Este 27 Este 0 -- -- 44
2018-05-21 17:00:00 27.4 14 Nordeste 28 Nordeste 0 -- -- 37
2018-05-21 16:00:00 27.5 17 Este 31 Nordeste 0 -- -- 41
2018-05-21 15:00:00 27 14 Sudeste 42 Sudeste 0 -- -- 39
2018-05-21 14:00:00 26.8 11 Este 24 Norte 0 -- -- 42
2018-05-21 13:00:00 26.6 12 Nordeste 25 Noroeste 0 -- -- 46
2018-05-21 12:00:00 24.8 6 Oeste 15 Nordeste 0 -- -- 48
2018-05-21 11:00:00 23.2 3 Noroeste 12 Sur 0 -- -- 54
2018-05-21 10:00:00 20.6 6 Sudoeste 17 Sur 0 -- -- 61
2018-05-21 09:00:00 17.6 10 Sur 17 Sur 0 -- -- 68
2018-05-21 08:00:00 14.8 8 Sur 12 Sur 0 -- -- 82
2018-05-21 07:00:00 13 6 Sur 9 Sur 0 -- -- 86
2018-05-21 06:00:00 13.9 6 Sur 10 Sur 0 -- -- 86
2018-05-21 05:00:00 14.9 5 Sur 9 Sur 0 -- -- 88
2018-05-21 04:00:00 15 5 Sur 10 Sur 0 -- -- 92
2018-05-21 03:00:00 13.2 3 Sur 8 Sur 0 -- -- 92
2018-05-21 02:00:00 12.8 2 Sur 5 Sudeste 0 -- -- 86
2018-05-21 01:00:00 13.8 2 Sur 7 Norte 0 -- -- 82
2018-05-21 00:00:00 15.2 3 Nordeste 6 Sur 0 -- -- 81
2018-05-20 23:00:00 16.7 5 Nordeste 6 Nordeste 0 -- -- 74
2018-05-20 22:00:00 18.4 3 Este 10 Nordeste 0 -- -- 69
2018-05-20 21:00:00 20.7 6 Nordeste 17 Este 0 -- -- 57
2018-05-20 20:00:00 22.9 12 Este 22 Este 0 -- -- 54
2018-05-20 19:00:00 24.3 13 Este 27 Este 0 -- -- 48
2018-05-20 18:00:00 25 15 Este 31 Sudeste 0 -- -- 45
2018-05-20 17:00:00 26.2 16 Este 27 Este 0 -- -- 39
2018-05-20 16:00:00 26.4 15 Sudeste 32 Nordeste 0 -- -- 37
2018-05-20 15:00:00 27.5 14 Nordeste 28 Nordeste 0 -- -- 33
2018-05-20 14:00:00 26.7 12 Este 31 Nordeste 0 -- -- 34
2018-05-20 13:00:00 25.7 15 Nordeste 24 Norte 0 -- -- 38
2018-05-20 12:00:00 24.1 8 Norte 15 Nordeste 0 -- -- 40
2018-05-20 11:00:00 21.7 4 Sur 11 Oeste 0 -- -- 49
2018-05-20 10:00:00 19.6 7 Sudoeste 14 Sur 0 -- -- 55
2018-05-20 09:00:00 16.2 8 Sur 15 Sur 0 -- -- 68
2018-05-20 08:00:00 12.4 5 Sudoeste 13 Sudoeste 0 -- -- 85
2018-05-20 07:00:00 11.5 8 Sur 15 Sur 0 -- -- 85
2018-05-20 06:00:00 11.1 7 Sur 13 Sur 0 -- -- 90
2018-05-20 05:00:00 10 6 Sur 8 Sur 0 -- -- 90
2018-05-20 04:00:00 10.3 3 Sur 6 Sur 0 -- -- 88
2018-05-20 03:00:00 10.9 4 Sur 5 Sur 0 -- -- 87
2018-05-20 02:00:00 11.5 0 Calma 4 Sudeste 0 -- -- 83
2018-05-20 01:00:00 12.4 3 Sur 4 Oeste 0 -- -- 80
2018-05-20 00:00:00 14.2 4 Sudeste 9 Este 0 -- -- 74
2018-05-19 23:00:00 15.9 5 Nordeste 9 Nordeste 0 -- -- 68
2018-05-19 22:00:00 18 4 Norte 12 Este 0 -- -- 57
2018-05-19 21:00:00 20.9 7 Este 15 Este 0 -- -- 45
2018-05-19 20:00:00 23.8 8 Este 19 Sudeste 0 -- -- 37
2018-05-19 19:00:00 25.6 10 Este 19 Nordeste 0 -- -- 33
2018-05-19 18:00:00 26 10 Este 23 Este 0 -- -- 33
2018-05-19 17:00:00 26.9 10 Nordeste 45 Norte 0 -- -- 31
2018-05-19 16:00:00 26.9 14 Nordeste 32 Nordeste 0 -- -- 34
2018-05-19 15:00:00 26.5 14 Nordeste 28 Norte 0 -- -- 37
2018-05-19 14:00:00 26.2 16 Nordeste 32 Nordeste 0 -- -- 41
2018-05-19 13:00:00 25.5 14 Nordeste 31 Norte 0 -- -- 45
2018-05-19 12:00:00 25 12 Nordeste 25 Nordeste 0 -- -- 47
2018-05-19 11:00:00 22 4 Norte 12 Noroeste 0 -- -- 55
2018-05-19 10:00:00 19.6 6 Sudoeste 13 Sudeste 0 -- -- 66
2018-05-19 09:00:00 17.1 8 Sudoeste 15 Sur 0 -- -- 75
2018-05-19 08:00:00 14.6 8 Sur 12 Sur 0 -- -- 87
2018-05-19 07:00:00 13.4 6 Sur 9 Sur 0 -- -- 91
2018-05-19 06:00:00 12.3 5 Sur 8 Sur 0 -- -- 94
2018-05-19 05:00:00 10.4 3 Sur 6 Sur 0 -- -- 90
2018-05-19 04:00:00 10.8 0 Calma 3 Sur 0 -- -- 88
2018-05-19 03:00:00 11.6 3 Sur 5 Sur 0 -- -- 89
2018-05-19 02:00:00 12.1 3 Sur 4 Sudeste 0 -- -- 88
2018-05-19 01:00:00 12.8 0 Calma 4 Sur 0 -- -- 82
2018-05-19 00:00:00 14 0 Calma 3 Este 0 -- -- 77
2018-05-18 23:00:00 16.1 2 Este 7 Nordeste 0 -- -- 73
2018-05-18 22:00:00 17.9 5 Nordeste 12 Nordeste 0 -- -- 69
2018-05-18 21:00:00 19.8 9 Nordeste 14 Norte 0 -- -- 59
2018-05-18 20:00:00 22 9 Este 24 Este 0 -- -- 50
2018-05-18 19:00:00 22.8 14 Este 32 Este 0 -- -- 47
2018-05-18 18:00:00 23.6 17 Este 31 Este 0 -- -- 46
2018-05-18 17:00:00 25.1 17 Nordeste 31 Nordeste 0 -- -- 45
2018-05-18 16:00:00 25.6 19 Este 35 Nordeste 0 -- -- 42
2018-05-18 15:00:00 25.3 21 Este 36 Este 0 -- -- 41
2018-05-18 14:00:00 26 12 Este 26 Este 0 -- -- 40
2018-05-18 13:00:00 25.5 14 Nordeste 27 Nordeste 0 -- -- 43
2018-05-18 12:00:00 24.3 5 Norte 13 Nordeste 0 -- -- 48
2018-05-18 11:00:00 22.4 4 Sudoeste 10 Este 0 -- -- 55
2018-05-18 10:00:00 19.4 5 Sudoeste 15 Sur 0 -- -- 66
2018-05-18 09:00:00 16.9 7 Sudoeste 13 Sudoeste 0 -- -- 69
2018-05-18 08:00:00 13.9 3 Sur 9 Sur 0 -- -- 83
2018-05-18 07:00:00 12 6 Sur 11 Sudeste 0 -- -- 89
2018-05-18 06:00:00 12.8 6 Sur 14 Sur 0 -- -- 85
2018-05-18 05:00:00 12.1 3 Sudoeste 6 Sudeste 0 -- -- 91
2018-05-18 04:00:00 12.1 4 Sur 5 Sudeste 0 -- -- 87
2018-05-18 03:00:00 12.8 3 Sudeste 4 Sur 0 -- -- 84
2018-05-18 02:00:00 14.2 0 Calma 7 Sudoeste 0 -- -- 81
2018-05-18 01:00:00 14.7 3 Sudeste 6 Sur 0 -- -- 77
2018-05-18 00:00:00 15.1 0 Calma 9 Nordeste 0 -- -- 69
2018-05-17 23:00:00 16.8 6 Nordeste 11 Nordeste 0 -- -- 60
2018-05-17 22:00:00 18.6 6 Nordeste 17 Este 0 -- -- 53
2018-05-17 21:00:00 20.2 8 Este 25 Este 0 -- -- 51
2018-05-17 20:00:00 22.7 13 Este 31 Este 0 -- -- 48
2018-05-17 19:00:00 24.8 12 Este 29 Este 0 -- -- 41
2018-05-17 18:00:00 25.2 13 Sudeste 33 Este 0 -- -- 40
2018-05-17 17:00:00 24.8 17 Este 33 Sudeste 0 -- -- 41
2018-05-17 16:00:00 25.4 14 Este 32 Sudeste 0 -- -- 41
2018-05-17 15:00:00 25.1 17 Este 35 Sudeste 0 -- -- 42
2018-05-17 14:00:00 25.1 18 Este 34 Sudeste 0 -- -- 39
2018-05-17 13:00:00 25 14 Sudeste 40 Este 0 -- -- 39
2018-05-17 12:00:00 24.3 9 Norte 18 Norte 0 -- -- 42
2018-05-17 11:00:00 22 5 Noroeste 11 Sur 0 -- -- 46
2018-05-17 10:00:00 19.2 5 Sur 16 Sur 0 -- -- 53
2018-05-17 09:00:00 16.3 8 Sur 13 Sur 0 -- -- 58
2018-05-17 08:00:00 12.6 4 Sur 9 Sur 0 -- -- 78
2018-05-17 07:00:00 9.7 9 Sur 12 Sur 0 -- -- 88
2018-05-17 06:00:00 8.6 3 Sur 7 Sur 0 -- -- 87
2018-05-17 05:00:00 9.4 3 Sur 10 Sur 0 -- -- 87
2018-05-17 04:00:00 9.7 3 Sur 6 Sur 0 -- -- 86
2018-05-17 03:00:00 10.4 2 Sur 4 Sur 0 -- -- 84
2018-05-17 02:00:00 11.6 3 Sur 5 Sur 0 -- -- 83
2018-05-17 01:00:00 12.7 5 Sur 8 Sur 0 -- -- 81
2018-05-17 00:00:00 14.1 3 Sur 9 Sudoeste 0 -- -- 71
2018-05-16 23:00:00 16.4 4 Este 10 Nordeste 0 -- -- 58
2018-05-16 22:00:00 18.4 4 Sur 25 Este 0 -- -- 51
2018-05-16 21:00:00 19.9 16 Este 23 Este 0 -- -- 43
2018-05-16 20:00:00 22.1 12 Sudeste 22 Sudeste 0 -- -- 38
2018-05-16 19:00:00 23.3 11 Este 28 Este 0 -- -- 33
2018-05-16 18:00:00 24.6 13 Este 31 Este 0 -- -- 30
2018-05-16 17:00:00 24.9 16 Este 32 Este 0 -- -- 30
2018-05-16 16:00:00 25.5 15 Este 31 Este 0 -- -- 33
2018-05-16 15:00:00 26.1 14 Nordeste 35 Nordeste 0 -- -- 35
2018-05-16 14:00:00 26 20 Nordeste 32 Nordeste 0 -- -- 31
2018-05-16 13:00:00 25.2 17 Nordeste 28 Nordeste 0 -- -- 41
2018-05-16 12:00:00 23.2 12 Norte 22 Norte 0 -- -- 42
2018-05-16 11:00:00 21.4 8 Noroeste 14 Norte 0 -- -- 48
2018-05-16 10:00:00 19.1 4 Noroeste 10 Sur 0 -- -- 55
2018-05-16 09:00:00 16.2 6 Sur 12 Sur 0 -- -- 65
2018-05-16 08:00:00 12.9 4 Sur 10 Sur 0 -- -- 82
2018-05-16 07:00:00 10.6 5 Sur 11 Sur 0 -- -- 89
2018-05-16 06:00:00 11 6 Sur 12 Sur 0 -- -- 87
2018-05-16 05:00:00 10.4 5 Sur 8 Sur 0 -- -- 89
2018-05-16 04:00:00 10.7 2 Sur 5 Sur 0 -- -- 87
2018-05-16 03:00:00 11.5 3 Sur 6 Sur 0 -- -- 88
2018-05-16 02:00:00 12.2 4 Sur 6 Sur 0 -- -- 84
2018-05-16 01:00:00 13.9 2 Sur 7 Sudoeste 0 -- -- 80
2018-05-16 00:00:00 15.7 5 Nordeste 12 Norte 0 -- -- 80
2018-05-15 23:00:00 16 5 Nordeste 9 Nordeste 0 -- -- 72
2018-05-15 22:00:00 17.6 7 Nordeste 10 Este 0 -- -- 58
2018-05-15 21:00:00 20.5 8 Nordeste 19 Norte 0 -- -- 52
2018-05-15 20:00:00 24 8 Nordeste 16 Sudeste 0 -- -- 40
2018-05-15 19:00:00 23.8 10 Este 22 Sudeste 0 -- -- 41
2018-05-15 18:00:00 23.9 12 Sudeste 27 Sudeste 0 -- -- 44
2018-05-15 17:00:00 24.1 14 Este 28 Sudeste 0 -- -- 43
2018-05-15 16:00:00 24.2 12 Este 28 Este 0 -- -- 42
2018-05-15 15:00:00 24.1 14 Sudeste 23 Sudeste 0 -- -- 42
2018-05-15 14:00:00 24.4 10 Nordeste 23 Nordeste 0 -- -- 41
2018-05-15 13:00:00 23.6 13 Nordeste 23 Norte 0 -- -- 41
2018-05-15 12:00:00 21.6 5 Oeste 13 Norte 0 -- -- 42
2018-05-15 11:00:00 20.6 5 Nordeste 10 Nordeste 0 -- -- 44
2018-05-15 10:00:00 18.4 5 Sur 11 Sudeste 0 -- -- 48
2018-05-15 09:00:00 15.4 5 Sudoeste 10 Sur 0 -- -- 66
2018-05-15 08:00:00 11.1 5 Sur 7 Sur 0 -- -- 89
2018-05-15 07:00:00 8.5 2 Sudoeste 6 Sur 0 -- -- 88
2018-05-15 06:00:00 9.6 0 Calma 6 Sudeste 0 -- -- 87
2018-05-15 05:00:00 11.5 2 Sur 5 Sudoeste 0 -- -- 86
2018-05-15 04:00:00 13.6 0 Calma 11 Norte 0 -- -- 84
2018-05-15 03:00:00 14.7 7 Nordeste 12 Norte 0 -- -- 83
2018-05-15 02:00:00 14.7 0 Calma 22 Noroeste 0 -- -- 85
2018-05-15 01:00:00 15.5 10 Noroeste 19 Norte 0 -- -- 83
2018-05-15 00:00:00 16.7 7 Norte 16 Norte 0 -- -- 80
2018-05-14 23:00:00 17.2 10 Norte 17 Nordeste 0 -- -- 78
2018-05-14 22:00:00 18 7 Norte 10 Nordeste 0 -- -- 52
2018-05-14 21:00:00 21.2 5 Nordeste 16 Nordeste 0 -- -- 36
2018-05-14 20:00:00 24.8 11 Nordeste 18 Norte 0 -- -- 30
2018-05-14 19:00:00 25.7 5 Noroeste 20 Este 0 -- -- 30
2018-05-14 18:00:00 25.6 10 Este 24 Nordeste 0 -- -- 36
2018-05-14 17:00:00 24.9 6 Este 23 Nordeste 0 -- -- 33
2018-05-14 16:00:00 25.7 8 Oeste 23 Oeste 0 -- -- 29
2018-05-14 15:00:00 24.8 6 Sudoeste 21 Sudoeste 0 -- -- 30
2018-05-14 14:00:00 24.1 9 Oeste 21 Oeste 0 -- -- 31
2018-05-14 13:00:00 23 6 Noroeste 20 Sudoeste 0 -- -- 33
2018-05-14 12:00:00 21 10 Sudoeste 21 Sudoeste 0 -- -- 36
2018-05-14 11:00:00 20.3 8 Oeste 20 Oeste 0 -- -- 37
2018-05-14 10:00:00 16.4 8 Sur 15 Sur 0 -- -- 49
2018-05-14 09:00:00 14.1 10 Sur 16 Sudeste 0 -- -- 59
2018-05-14 08:00:00 11.4 3 Sur 10 Sur 0 -- -- 73
2018-05-14 07:00:00 9 5 Sur 8 Sudeste 0 -- -- 88
2018-05-14 06:00:00 9.4 3 Sur 6 Sudeste 0 -- -- 86
2018-05-14 05:00:00 10.2 2 Sur 9 Noroeste 0 -- -- 83
2018-05-14 04:00:00 9.6 2 Oeste 5 Oeste 0 -- -- 87
2018-05-14 03:00:00 9.5 2 Sudoeste 9 Sudoeste 0 -- -- 85
2018-05-14 02:00:00 9.9 2 Sur 7 Sur 0 -- -- 80
2018-05-14 01:00:00 11.2 2 Nordeste 9 Nordeste 0 -- -- 74
2018-05-11 20:00:00 -- -- -- -- -- -- -- -- --
2018-05-11 19:00:00 28.2 11 Sudeste 20 Este 0 -- -- 48
2018-05-11 18:00:00 28.9 9 Este 22 Este 0 -- -- 45
2018-05-11 17:00:00 29.2 12 Norte 21 Norte 0 -- -- 48
2018-05-11 16:00:00 29 10 Nordeste 21 Norte 0 -- -- 47
2018-05-11 15:00:00 27.6 9 Noroeste 19 Este 0 -- -- 46
2018-05-11 14:00:00 26.6 4 Este 15 Noroeste 0 -- -- 48
2018-05-11 13:00:00 25 6 Oeste 11 Sudoeste 0 -- -- 55
2018-05-11 12:00:00 22.9 3 Oeste 11 Oeste 0 -- -- 60
2018-05-11 11:00:00 20.8 6 Sur 14 Sudoeste 0 -- -- 67
2018-05-11 10:00:00 18.6 7 Sur 13 Sur 0 -- -- 74
2018-05-11 09:00:00 16.4 6 Sudoeste 12 Sur 0 -- -- 82
2018-05-11 08:00:00 14.6 5 Sur 9 Sur 0 -- -- 92
2018-05-11 07:00:00 14.1 4 Sur 8 Sur 0 -- -- 95
2018-05-11 06:00:00 12.9 4 Sur 6 Sur 0 -- -- 94
2018-05-11 05:00:00 12.6 3 Sur 8 Sur 0 -- -- 93
2018-05-11 04:00:00 12.3 3 Sur 6 Sur 0 -- -- 92
2018-05-11 03:00:00 12.3 0 Calma 6 Sur 0 -- -- 90
2018-05-11 02:00:00 13.1 0 Calma 5 Sudoeste 0 -- -- 89
2018-05-11 01:00:00 13.9 2 Sudeste 5 Sudeste 0 -- -- 88
2018-05-11 00:00:00 15.2 0 Calma 11 Norte 0 -- -- 84
2018-05-10 23:00:00 17.1 6 Norte 16 Nordeste 0 -- -- 79
2018-05-10 22:00:00 18.4 6 Noroeste 15 Noroeste 0 -- -- 68
2018-05-10 21:00:00 18.9 5 Sudeste 18 Este 0 -- -- 65
2018-05-10 20:00:00 19.9 13 Nordeste 38 Este 0 -- -- 60
2018-05-10 19:00:00 21.3 18 Este 37 Este 0 -- -- 51
2018-05-10 18:00:00 23.8 18 Sudeste 33 Este 0 -- -- 48
2018-05-10 17:00:00 24.7 17 Este 31 Este 0 -- -- 43
2018-05-10 16:00:00 24.7 18 Este 32 Este 0 -- -- 40
2018-05-10 15:00:00 24.6 16 Este 27 Este 0 -- -- 47
2018-05-10 14:00:00 23.7 14 Este 27 Este 0 -- -- 49
2018-05-10 13:00:00 23.4 13 Sudeste 23 Sudeste 0 -- -- 50
2018-05-10 12:00:00 21.7 12 Sudeste 23 Sudeste 0 -- -- 60
2018-05-10 11:00:00 20 3 Sur 8 Sur 0 -- -- 85
2018-05-10 10:00:00 19 4 Sudoeste 7 Sudoeste 0 -- -- 91
2018-05-10 09:00:00 18.4 0 Calma 4 Este 0 -- -- 94
2018-05-10 08:00:00 17 2 Sudeste 4 Sur 0 -- -- 95
2018-05-10 07:00:00 16.7 0 Calma 3 Sur 0 -- -- 94
2018-05-10 06:00:00 17 4 Sudeste 8 Sur 1.2 -- -- 94
2018-05-10 05:00:00 17.1 2 Sudoeste 24 Oeste 2.6 -- -- 94
2018-05-10 04:00:00 16.9 8 Sudeste 16 Sudeste 2.2 -- -- 93
2018-05-10 03:00:00 16 0 Calma 5 Sudeste 0 -- -- 92
2018-05-10 02:00:00 15.5 0 Calma 5 Oeste 0 -- -- 90
2018-05-10 01:00:00 16 0 Calma 4 Este 0 -- -- 87
2018-05-10 00:00:00 17.2 3 Nordeste 7 Este 0 -- -- 87
2018-05-09 23:00:00 18.1 3 Nordeste 16 Nordeste 0 -- -- 87
2018-05-09 22:00:00 18.7 8 Norte 17 Norte 0 -- -- 86
2018-05-09 21:00:00 19.6 9 Norte 23 Nordeste 0 -- -- 82
2018-05-09 20:00:00 21.1 13 Norte 25 Nordeste 0 -- -- 75
2018-05-09 19:00:00 24.3 12 Nordeste 21 Norte 0 -- -- 63
2018-05-09 18:00:00 25.5 13 Sur 24 Sur 0 -- -- 59
2018-05-09 17:00:00 22.9 8 Este 50 Noroeste 0.4 -- -- 72
2018-05-09 16:00:00 28.8 7 Este 18 Este 0 -- -- 45
2018-05-09 15:00:00 28.9 8 Este 24 Norte 0 -- -- 40
2018-05-09 14:00:00 29.4 8 Nordeste 16 Sudeste 0 -- -- 41
2018-05-09 13:00:00 27.2 5 Nordeste 17 Este 0 -- -- 45
2018-05-09 12:00:00 26.1 4 Nordeste 11 Sudeste 0 -- -- 48
2018-05-09 11:00:00 24 6 Sudoeste 14 Sudoeste 0 -- -- 53
2018-05-09 10:00:00 21.5 8 Sur 14 Sudoeste 0 -- -- 63
2018-05-09 09:00:00 19 9 Sur 13 Sur 0 -- -- 73
2018-05-09 08:00:00 15.4 8 Sur 11 Sur 0 -- -- 91
2018-05-09 07:00:00 13.2 5 Sur 9 Sur 0 -- -- 91
2018-05-09 06:00:00 13.9 5 Sur 9 Sur 0 -- -- 89
2018-05-09 05:00:00 14.4 5 Sur 8 Sudoeste 0 -- -- 87
2018-05-09 04:00:00 15.1 6 Sur 10 Sur 0 -- -- 88
2018-05-09 03:00:00 14.6 3 Sur 5 Sur 0 -- -- 87
2018-05-09 02:00:00 14.5 0 Calma 5 Sudeste 0 -- -- 83
2018-05-09 01:00:00 15.9 3 Sudeste 7 Sur 0 -- -- 81
2018-05-09 00:00:00 17.5 2 Sur 4 Sur 0 -- -- 78
2018-05-08 23:00:00 19 3 Sur 6 Sur 0 -- -- 73
2018-05-08 22:00:00 20.2 2 Sur 8 Nordeste 0 -- -- 67
2018-05-08 21:00:00 20.9 3 Nordeste 15 Noroeste 0 -- -- 61
2018-05-08 20:00:00 21.7 11 Noroeste 18 Norte 0 -- -- 59
2018-05-08 19:00:00 23.4 10 Nordeste 23 Nordeste 0 -- -- 53
2018-05-08 18:00:00 23 10 Nordeste 23 Nordeste 0 -- -- 55
2018-05-08 17:00:00 24.9 15 Nordeste 32 Nordeste 0 -- -- 48
2018-05-08 16:00:00 26.6 10 Noroeste 28 Noroeste 0 -- -- 45
2018-05-08 15:00:00 24.3 14 Noroeste 36 Noroeste 0 -- -- 51
2018-05-08 14:00:00 28.8 12 Nordeste 24 Nordeste 0 -- -- 40
2018-05-08 13:00:00 27.7 6 Norte 17 Nordeste 0 -- -- 45
2018-05-08 12:00:00 26.1 6 Norte 12 Sur 0 -- -- 48
2018-05-08 11:00:00 24.2 5 Sur 14 Sur 0 -- -- 51
2018-05-08 10:00:00 21.3 8 Sur 15 Sur 0 -- -- 58
2018-05-08 09:00:00 18 8 Sur 14 Sur 0 -- -- 65
2018-05-08 08:00:00 14.1 5 Sudoeste 9 Sur 0 -- -- 85
2018-05-08 07:00:00 12.6 6 Sur 9 Sur 0 -- -- 88
2018-05-08 06:00:00 12.2 7 Sur 9 Sur 0 -- -- 90
2018-05-08 05:00:00 11.4 5 Sur 8 Sur 0 -- -- 90
2018-05-08 04:00:00 11.6 2 Sur 6 Sur 0 -- -- 89
2018-05-08 03:00:00 11.6 2 Sudoeste 5 Sur 0 -- -- 87
2018-05-08 02:00:00 12.3 0 Calma 3 Sur 0 -- -- 86
2018-05-08 01:00:00 13 2 Sur 4 Sudeste 0 -- -- 84
2018-05-08 00:00:00 14 4 Sudeste 6 Sudeste 0 -- -- 81
2018-05-07 23:00:00 15.6 4 Este 12 Noroeste 0 -- -- 75
2018-05-07 22:00:00 17.4 6 Nordeste 14 Nordeste 0 -- -- 69
2018-05-07 21:00:00 19.5 9 Nordeste 15 Norte 0 -- -- 63
2018-05-07 20:00:00 22.6 8 Nordeste 27 Nordeste 0 -- -- 51
2018-05-07 19:00:00 24.2 18 Nordeste 30 Nordeste 0 -- -- 46
2018-05-07 18:00:00 26.1 18 Nordeste 29 Nordeste 0 -- -- 43
2018-05-07 17:00:00 26.5 6 Este 21 Este 0 -- -- 40
2018-05-07 16:00:00 27 9 Norte 27 Norte 0 -- -- 41
2018-05-07 15:00:00 26.6 16 Nordeste 28 Nordeste 0 -- -- 43
2018-05-07 14:00:00 26.3 13 Nordeste 24 Nordeste 0 -- -- 46
2018-05-07 13:00:00 25.1 6 Norte 18 Nordeste 0 -- -- 50
2018-05-07 12:00:00 23.8 5 Noroeste 15 Noroeste 0 -- -- 51
2018-05-07 11:00:00 21.8 5 Sudoeste 13 Sudoeste 0 -- -- 57
2018-05-07 10:00:00 18.9 5 Sudoeste 13 Sur 0 -- -- 66
2018-05-07 09:00:00 16.1 9 Sur 13 Sur 0 -- -- 75
2018-05-07 08:00:00 12.8 8 Sur 12 Sur 0 -- -- 91
2018-05-07 07:00:00 11.4 5 Sur 10 Sur 0 -- -- 92
2018-05-07 06:00:00 11.6 6 Sur 10 Sur 0 -- -- 93
2018-05-07 05:00:00 11.4 4 Sur 6 Sur 0 -- -- 91
2018-05-07 04:00:00 12.2 0 Calma 10 Sur 0 -- -- 91
2018-05-07 03:00:00 12.1 3 Sur 6 Sur 0 -- -- 91
2018-05-07 02:00:00 12.6 3 Sudeste 6 Sur 0 -- -- 87
2018-05-07 01:00:00 14.2 2 Sudoeste 6 Sudoeste 0 -- -- 86
2018-05-07 00:00:00 15.4 5 Nordeste 8 Nordeste 0 -- -- 84
2018-05-06 23:00:00 16.8 4 Norte 12 Nordeste 0 -- -- 81
2018-05-06 22:00:00 18.1 7 Nordeste 15 Nordeste 0 -- -- 76
2018-05-06 21:00:00 19.4 9 Nordeste 15 Nordeste 0 -- -- 63
2018-05-06 20:00:00 21 9 Este 22 Este 0 -- -- 55
2018-05-06 19:00:00 22.2 15 Este 25 Este 0 -- -- 50
2018-05-06 18:00:00 23.3 11 Este 25 Este 0 -- -- 47
2018-05-06 17:00:00 24.9 13 Sudeste 26 Este 0 -- -- 43
2018-05-06 16:00:00 25.9 11 Este 33 Sudeste 0 -- -- 41
2018-05-06 15:00:00 25.7 10 Sudeste 27 Sudeste 0 -- -- 42
2018-05-06 14:00:00 24.9 11 Este 24 Nordeste 0 -- -- 44
2018-05-06 13:00:00 24.4 8 Este 19 Nordeste 0 -- -- 45
2018-05-06 12:00:00 23.7 5 Nordeste 10 Nordeste 0 -- -- 49
2018-05-06 11:00:00 22.1 5 Sur 13 Sur 0 -- -- 52
2018-05-06 10:00:00 19.2 7 Sudoeste 15 Sur 0 -- -- 57
2018-05-06 09:00:00 16.5 8 Sur 13 Sur 0 -- -- 64
2018-05-06 08:00:00 13.1 6 Sur 10 Sur 0 -- -- 78
2018-05-06 07:00:00 11.4 7 Sur 11 Sur 0 -- -- 82
2018-05-06 06:00:00 11.1 6 Sur 9 Sur 0 -- -- 84
2018-05-06 05:00:00 10.9 8 Sur 10 Sur 0 -- -- 88
2018-05-06 04:00:00 10.9 3 Sudoeste 5 Sur 0 -- -- 86
2018-05-06 03:00:00 11.4 3 Sudeste 7 Sur 0 -- -- 83
2018-05-06 02:00:00 12.2 4 Sudeste 8 Sur 0 -- -- 81
2018-05-06 01:00:00 13.7 4 Sudeste 7 Sudeste 0 -- -- 77
2018-05-06 00:00:00 15.5 4 Nordeste 8 Norte 0 -- -- 72
2018-05-05 23:00:00 16.5 5 Nordeste 8 Nordeste 0 -- -- 62
2018-05-05 22:00:00 17 4 Nordeste 13 Nordeste 0 -- -- 62
2018-05-05 21:00:00 18.6 9 Nordeste 18 Nordeste 0 -- -- 57
2018-05-05 20:00:00 20.1 10 Nordeste 22 Nordeste 0 -- -- 50
2018-05-05 19:00:00 23 13 Nordeste 29 Sudeste 0 -- -- 40
2018-05-05 18:00:00 23 14 Este 37 Este 0 -- -- 41
2018-05-05 17:00:00 23.5 20 Este 38 Este 0 -- -- 42
2018-05-05 16:00:00 24.5 19 Este 32 Este 0 -- -- 42
2018-05-05 15:00:00 26.2 18 Nordeste 29 Nordeste 0 -- -- 38
2018-05-05 14:00:00 27.2 12 Nordeste 23 Nordeste 0 -- -- 37
2018-05-05 13:00:00 26 6 Norte 13 Noroeste 0 -- -- 37
2018-05-05 12:00:00 23.9 4 Este 12 Sudoeste 0 -- -- 47
2018-05-05 11:00:00 21.9 4 Sur 19 Sudoeste 0 -- -- 48
2018-05-05 10:00:00 20 7 Sudoeste 13 Sur 0 -- -- 52
2018-05-05 09:00:00 15.1 6 Sur 12 Sur 0 -- -- 74
2018-05-05 08:00:00 11.9 5 Sur 9 Sudoeste 0 -- -- 88
2018-05-05 07:00:00 11 0 Calma 8 Sudeste 0 -- -- 87
2018-05-05 06:00:00 10.5 4 Sudeste 6 Sudeste 0 -- -- 87
2018-05-05 05:00:00 12 0 Calma 2 Sudeste 0 -- -- 85
2018-05-05 04:00:00 13.7 0 Calma 5 Sur 0 -- -- 84
2018-05-05 03:00:00 14.3 3 Sudeste 4 Sudeste 0 -- -- 85
2018-05-05 02:00:00 14.6 0 Calma 6 Sur 0 -- -- 82
2018-05-05 01:00:00 14.8 2 Sudeste 6 Sudoeste 0.2 -- -- 84
2018-05-05 00:00:00 15.6 2 Sudeste 5 Nordeste 0 -- -- 79
2018-05-04 23:00:00 16.6 2 Este 7 Norte 0 -- -- 64
2018-05-04 22:00:00 17.1 4 Norte 10 Noroeste 0 -- -- 60
2018-05-04 21:00:00 17.8 2 Oeste 11 Sudeste 0 -- -- 52
2018-05-04 20:00:00 18.5 6 Sudeste 22 Este 0 -- -- 52
2018-05-04 19:00:00 20.2 12 Este 23 Este 0 -- -- 40
2018-05-04 18:00:00 22.6 10 Nordeste 25 Nordeste 0 -- -- 37
2018-05-04 17:00:00 23.8 10 Este 22 Este 0 -- -- 34
2018-05-04 16:00:00 24 10 Nordeste 20 Este 0 -- -- 36
2018-05-04 15:00:00 22.6 12 Este 20 Este 0 -- -- 39
2018-05-04 14:00:00 22.8 9 Norte 22 Oeste 0 -- -- 38
2018-05-04 13:00:00 22.3 7 Este 17 Sur 0 -- -- 37
2018-05-04 12:00:00 21.7 8 Nordeste 18 Este 0 -- -- 38
2018-05-04 11:00:00 19.3 5 Sur 14 Sur 0 -- -- 47
2018-05-04 10:00:00 16.6 6 Sur 11 Sur 0 -- -- 55
2018-05-04 09:00:00 13.4 6 Sur 12 Sur 0 -- -- 69
2018-05-04 08:00:00 10.2 9 Sur 12 Sur 0 -- -- 93
2018-05-04 07:00:00 7.2 5 Sur 9 Sur 0 -- -- 93
2018-05-04 06:00:00 7 4 Sur 8 Sudeste 0 -- -- 91
2018-05-04 05:00:00 7.7 3 Sudoeste 8 Sudoeste 0 -- -- 91
2018-05-04 04:00:00 8.3 0 Calma 4 Sur 0 -- -- 89
2018-05-04 03:00:00 9.2 2 Sur 4 Sudeste 0 -- -- 90
2018-05-04 02:00:00 10.2 2 Sur 5 Sur 0 -- -- 86
2018-05-04 01:00:00 11.5 0 Calma 9 Norte 0 -- -- 86
2018-05-04 00:00:00 13.2 2 Este 9 Nordeste 0 -- -- 84
2018-05-03 23:00:00 14.8 2 Este 12 Norte 0 -- -- 80
2018-05-03 22:00:00 16.8 4 Sudeste 11 Oeste 0 -- -- 75
2018-05-03 21:00:00 18.9 6 Sudeste 20 Nordeste 0 -- -- 64
2018-05-03 20:00:00 22.8 10 Nordeste 17 Nordeste 0 -- -- 48
2018-05-03 19:00:00 22.3 6 Este 28 Sudeste 0 -- -- 50
2018-05-03 18:00:00 22.5 18 Sudeste 42 Este 0 -- -- 48
2018-05-03 17:00:00 24.9 19 Este 33 Este 0 -- -- 37
2018-05-03 16:00:00 24.6 17 Este 30 Sudeste 0 -- -- 38
2018-05-03 15:00:00 27.8 11 Oeste 40 Oeste 0 -- -- 27
2018-05-03 14:00:00 26.3 11 Oeste 21 Noroeste 0 -- -- 32
2018-05-03 13:00:00 25.2 10 Sudoeste 27 Noroeste 0 -- -- 31
2018-05-03 12:00:00 23.8 11 Norte 30 Noroeste 0 -- -- 37
2018-05-03 11:00:00 22.5 9 Noroeste 23 Noroeste 0 -- -- 40
2018-05-03 10:00:00 21.2 9 Oeste 19 Sudoeste 0 -- -- 42
2018-05-03 09:00:00 18 6 Sur 10 Sudeste 0 -- -- 46
2018-05-03 08:00:00 13.8 7 Sur 15 Sur 0 -- -- 54
2018-05-03 07:00:00 12.4 9 Sur 15 Sur 0 -- -- 55
2018-05-03 06:00:00 12.5 5 Sur 14 Sur 0 -- -- 53
2018-05-03 05:00:00 12.8 9 Sur 14 Sur 0 -- -- 52
2018-05-03 04:00:00 11.6 5 Sudeste 8 Sudeste 0 -- -- 58
2018-05-03 03:00:00 13.2 5 Sur 10 Sudeste 0 -- -- 54
2018-05-03 02:00:00 14.7 5 Sur 11 Sur 0 -- -- 48
2018-05-03 01:00:00 13.3 3 Sur 10 Sudeste 0 -- -- 52
2018-05-03 00:00:00 13.6 5 Sur 9 Sur 0 -- -- 50
2018-05-02 23:00:00 15.3 5 Sur 19 Oeste 0 -- -- 49
2018-05-02 22:00:00 19.4 13 Noroeste 18 Oeste 0 -- -- 34
2018-05-02 21:00:00 21.5 8 Noroeste 25 Noroeste 0 -- -- 31
2018-05-02 20:00:00 22.9 12 Noroeste 29 Noroeste 0 -- -- 29
2018-05-02 19:00:00 24.7 18 Noroeste 35 Noroeste 0 -- -- 26
2018-05-02 18:00:00 25.6 19 Noroeste 44 Sudoeste 0 -- -- 25
2018-05-02 17:00:00 24.7 18 Oeste 37 Oeste 0 -- -- 27
2018-05-02 16:00:00 26.3 18 Oeste 32 Oeste 0 -- -- 25
2018-05-02 15:00:00 25.4 18 Oeste 33 Oeste 0 -- -- 27
2018-05-02 14:00:00 23.9 14 Oeste 35 Oeste 0 -- -- 25
2018-05-02 13:00:00 23.4 19 Oeste 34 Noroeste 0 -- -- 28
2018-05-02 12:00:00 22 17 Noroeste 35 Noroeste 0 -- -- 33
2018-05-02 11:00:00 19 8 Sudoeste 22 Sur 0 -- -- 39
2018-05-02 10:00:00 15.9 10 Sudoeste 20 Sudoeste 0 -- -- 50
2018-05-02 09:00:00 13.1 12 Sur 17 Sur 0 -- -- 59
2018-05-02 08:00:00 8.9 8 Sur 15 Sur 0 -- -- 80
2018-05-02 07:00:00 7.1 10 Sur 14 Sur 0 -- -- 87
2018-05-02 06:00:00 6.9 8 Sur 13 Sudeste 0 -- -- 87
2018-05-02 05:00:00 7.6 5 Sur 16 Sur 0 -- -- 85
2018-05-02 04:00:00 7.8 9 Sur 12 Sur 0 -- -- 88
2018-05-02 03:00:00 6.6 4 Sur 8 Sudeste 0 -- -- 89
2018-05-02 02:00:00 6.6 3 Sudeste 6 Sudeste 0 -- -- 86
2018-05-02 01:00:00 7.5 3 Sur 5 Sur 0 -- -- 84
2018-05-02 00:00:00 8.5 0 Calma 7 Sudeste 0 -- -- 79
2018-05-01 23:00:00 10.3 0 Calma 7 Nordeste 0 -- -- 72
2018-05-01 22:00:00 12.4 5 Nordeste 13 Nordeste 0 -- -- 63
2018-05-01 21:00:00 14.1 5 Nordeste 27 Este 0 -- -- 57
2018-05-01 20:00:00 15.8 17 Este 34 Este 0 -- -- 46
2018-05-01 19:00:00 17.1 18 Este 34 Este 0 -- -- 47
2018-05-01 18:00:00 18.7 18 Este 30 Sudeste 0 -- -- 44
2018-05-01 17:00:00 20.3 9 Sudeste 26 Este 0 -- -- 37
2018-05-01 16:00:00 20.9 16 Este 30 Este 0 -- -- 37
2018-05-01 15:00:00 20.2 12 Sudeste 24 Sudeste 0 -- -- 33
2018-05-01 14:00:00 20.2 8 Norte 18 Norte 0 -- -- 38
2018-05-01 13:00:00 18.9 6 Norte 16 Oeste 0 -- -- 38
2018-05-01 12:00:00 18.6 6 Noroeste 13 Sudeste 0 -- -- 38
2018-05-01 11:00:00 16.6 3 Noroeste 13 Sur 0 -- -- 43
2018-05-01 10:00:00 14.4 5 Sudoeste 15 Sur 0 -- -- 48
2018-05-01 09:00:00 12 6 Sudoeste 14 Sur 0 -- -- 56
2018-05-01 08:00:00 8.3 6 Sur 9 Sur 0 -- -- 72
2018-05-01 07:00:00 6.8 6 Sur 9 Sur 0 -- -- 76
2018-05-01 06:00:00 6.5 4 Sur 8 Sudeste 0 -- -- 75
2018-05-01 05:00:00 7.1 3 Sur 8 Sudeste 0 -- -- 71
2018-05-01 04:00:00 9.8 4 Sudoeste 11 Oeste 0 -- -- 62
2018-05-01 03:00:00 11.9 9 Oeste 18 Oeste 0 -- -- 53
2018-05-01 02:00:00 13.3 7 Oeste 21 Oeste 0 -- -- 52
2018-05-01 01:00:00 14.1 6 Oeste 24 Oeste 0 -- -- 50
2018-05-01 00:00:00 14.9 13 Oeste 30 Noroeste 0 -- -- 45
2018-04-30 23:00:00 15.7 11 Oeste 28 Oeste 0 -- -- 42
2018-04-30 22:00:00 15.5 10 Oeste 21 Oeste 0 -- -- 43
2018-04-30 21:00:00 16.7 7 Sur 17 Sur 0 -- -- 44
2018-04-30 20:00:00 17.4 10 Sur 20 Sur 0 -- -- 41
2018-04-30 19:00:00 18 8 Sudoeste 33 Oeste 0 -- -- 37
2018-04-30 18:00:00 18.6 6 Noroeste 15 Oeste 0 -- -- 37
2018-04-30 17:00:00 19.3 12 Noroeste 27 Noroeste 0 -- -- 34
2018-04-30 16:00:00 20.2 15 Oeste 30 Noroeste 0 -- -- 35
2018-04-30 15:00:00 20.6 14 Noroeste 31 Noroeste 0 -- -- 36
2018-04-30 14:00:00 18.9 14 Noroeste 34 Oeste 0 -- -- 39
2018-04-30 13:00:00 19.2 11 Noroeste 24 Noroeste 0 -- -- 41
2018-04-30 12:00:00 19.2 6 Noroeste 19 Oeste 0 -- -- 42
2018-04-30 11:00:00 17.6 8 Norte 21 Noroeste 0 -- -- 48
2018-04-30 10:00:00 16.5 8 Noroeste 17 Oeste 0 -- -- 54
2018-04-30 09:00:00 14.2 3 Oeste 8 Oeste 0 -- -- 62
2018-04-30 08:00:00 9 3 Sudeste 5 Sudeste 0 -- -- 85
2018-04-30 07:00:00 7.5 4 Sur 9 Sur 0 -- -- 84
2018-04-30 06:00:00 7.8 0 Calma 5 Sur 0 -- -- 85
2018-04-30 05:00:00 7.8 0 Calma 6 Sudeste 0 -- -- 79
2018-04-30 04:00:00 9.4 3 Sur 8 Sur 0 -- -- 75
2018-04-30 03:00:00 10.2 6 Sur 9 Sur 0 -- -- 73
2018-04-30 02:00:00 10.1 6 Sur 10 Sur 0 -- -- 71
2018-04-30 01:00:00 12.2 3 Sur 12 Sudoeste 0 -- -- 63
2018-04-30 00:00:00 12.6 4 Sudoeste 13 Sudoeste 0 -- -- 59
2018-04-29 23:00:00 14.4 7 Sudoeste 17 Sudoeste 0 -- -- 50
2018-04-29 22:00:00 15.7 10 Sudoeste 31 Sudoeste 0 -- -- 48
2018-04-29 21:00:00 16.9 13 Sudoeste 32 Sudoeste 0 -- -- 42
2018-04-29 20:00:00 18.7 20 Oeste 48 Oeste 0 -- -- 39
2018-04-29 19:00:00 19.7 22 Oeste 49 Oeste 0 -- -- 39
2018-04-29 18:00:00 21.4 25 Oeste 57 Oeste 0 -- -- 33
2018-04-29 17:00:00 22 24 Oeste 60 Oeste 0 -- -- 33
2018-04-29 16:00:00 21.9 22 Oeste 62 Oeste 0 -- -- 36
2018-04-29 15:00:00 21.9 23 Oeste 58 Sudoeste 0 -- -- 32
2018-04-29 14:00:00 21 30 Oeste 60 Oeste 0 -- -- 34
2018-04-29 13:00:00 20 24 Oeste 56 Oeste 0 -- -- 37
2018-04-29 12:00:00 19.5 23 Oeste 45 Oeste 0 -- -- 41
2018-04-29 11:00:00 17.7 26 Oeste 49 Oeste 0 -- -- 42
2018-04-29 10:00:00 16.4 24 Oeste 41 Sudoeste 0 -- -- 45
2018-04-29 09:00:00 15.7 9 Oeste 18 Sudoeste 0 -- -- 53
2018-04-29 08:00:00 12.3 5 Sur 19 Sudoeste 0 -- -- 70
2018-04-29 07:00:00 11.8 5 Sudoeste 12 Sudoeste 0 -- -- 74
2018-04-29 06:00:00 10.5 4 Sudoeste 12 Sudoeste 0 -- -- 90
2018-04-29 05:00:00 11.5 0 Calma 7 Sur 0 -- -- 91
2018-04-29 04:00:00 12.8 2 Oeste 6 Sur 0 -- -- 91
2018-04-29 03:00:00 13.8 2 Sudoeste 6 Sudeste 0 -- -- 88
2018-04-29 02:00:00 15.6 4 Sur 7 Sur 0 -- -- 89
2018-04-29 01:00:00 15.9 4 Sur 8 Oeste 0 -- -- 90
2018-04-29 00:00:00 15.6 5 Sudoeste 10 Sudeste 0 -- -- 89
2018-04-28 23:00:00 16.5 4 Este 9 Nordeste 0 -- -- 89
2018-04-28 22:00:00 15.9 5 Norte 13 Nordeste 0 -- -- 88
2018-04-28 21:00:00 16.7 9 Nordeste 21 Nordeste 0 -- -- 85
2018-04-28 20:00:00 17.6 11 Nordeste 30 Nordeste 0 -- -- 82
2018-04-28 19:00:00 18.9 20 Nordeste 37 Norte 0 -- -- 76
2018-04-28 18:00:00 24.3 16 Nordeste 34 Este 0 -- -- 59
2018-04-28 17:00:00 24.3 17 Este 40 Este 0 -- -- 60
2018-04-28 16:00:00 25 21 Este 35 Este 0 -- -- 52
2018-04-28 15:00:00 25.3 17 Sudeste 30 Sudeste 0 -- -- 56
2018-04-28 14:00:00 25.7 11 Este 24 Nordeste 0 -- -- 52
2018-04-28 13:00:00 24.6 9 Nordeste 19 Nordeste 0 -- -- 65
2018-04-28 12:00:00 22.1 5 Noroeste 10 Norte 0 -- -- 64
2018-04-28 11:00:00 20.1 3 Noroeste 8 Oeste 0 -- -- 77
2018-04-28 10:00:00 18.3 3 Oeste 8 Sudoeste 0 -- -- 88
2018-04-28 09:00:00 16.5 4 Sudoeste 7 Oeste 0 -- -- 93
2018-04-28 08:00:00 15.8 0 Calma 8 Sudoeste 0 -- -- 94
2018-04-28 07:00:00 16.1 4 Sudoeste 8 Oeste 0 -- -- 94
2018-04-28 06:00:00 16.3 0 Calma 8 Nordeste 0 -- -- 95
2018-04-28 05:00:00 16 3 Este 6 Sur 0 -- -- 95
2018-04-28 04:00:00 16.3 3 Sudeste 8 Sudeste 0 -- -- 95
2018-04-28 03:00:00 15.9 5 Sur 8 Sur 0 -- -- 94
2018-04-28 02:00:00 15.9 0 Calma 13 Nordeste 0 -- -- 92
2018-04-28 01:00:00 16.6 8 Norte 17 Nordeste 0 -- -- 92
2018-04-28 00:00:00 16.9 10 Nordeste 18 Nordeste 0 -- -- 92
2018-04-27 23:00:00 17.2 6 Sudeste 13 Oeste 0 -- -- 89
2018-04-27 22:00:00 18.3 6 Sudoeste 39 Noroeste 2 -- -- 84
2018-04-27 21:00:00 19.7 3 Sudoeste 18 Sudeste 0 -- -- 73
2018-04-27 20:00:00 19.9 7 Sudoeste 25 Sur 0.4 -- -- 77
2018-04-27 19:00:00 20.7 12 Sur 36 Sur 0.2 -- -- 71
2018-04-27 18:00:00 22.7 8 Sudoeste 23 Noroeste 0 -- -- 67
2018-04-27 17:00:00 23.1 16 Sudeste 40 Sudoeste 0.4 -- -- 62
2018-04-27 16:00:00 29.7 11 Este 21 Sur 0 -- -- 37
2018-04-27 15:00:00 31.7 7 Noroeste 28 Noroeste 0 -- -- 35
2018-04-27 14:00:00 31.4 12 Noroeste 32 Noroeste 0 -- -- 38
2018-04-27 13:00:00 30.2 14 Oeste 34 Noroeste 0 -- -- 42
2018-04-27 12:00:00 28.1 10 Oeste 22 Oeste 0 -- -- 48
2018-04-27 11:00:00 25.4 8 Sudoeste 20 Sur 0 -- -- 53
2018-04-27 10:00:00 22.4 9 Sur 15 Sur 0 -- -- 60
2018-04-27 09:00:00 17.8 6 Sudoeste 16 Sur 0 -- -- 76
2018-04-27 08:00:00 13.2 5 Sudoeste 9 Sudoeste 0 -- -- 92
2018-04-27 07:00:00 12.7 4 Sudoeste 13 Sur 0 -- -- 92
2018-04-27 06:00:00 11.6 6 Sur 8 Sur 0 -- -- 94
2018-04-27 05:00:00 10.6 4 Sudoeste 6 Sur 0 -- -- 92
2018-04-27 04:00:00 11.1 2 Sudoeste 5 Sudeste 0 -- -- 90
2018-04-27 03:00:00 11.7 3 Sur 5 Sudeste 0 -- -- 88
2018-04-27 02:00:00 12.6 3 Sur 5 Sudeste 0 -- -- 88
2018-04-27 01:00:00 14.2 3 Noroeste 11 Noroeste 0 -- -- 87
2018-04-27 00:00:00 14.7 2 Sudeste 7 Sur 0 -- -- 83
2018-04-26 23:00:00 15.6 3 Sur 9 Oeste 0 -- -- 80
2018-04-26 22:00:00 17.7 5 Oeste 9 Oeste 0 -- -- 69
2018-04-26 21:00:00 19.9 3 Sur 9 Este 0 -- -- 60
2018-04-26 20:00:00 23 5 Sudeste 20 Sudeste 0 -- -- 52
2018-04-26 19:00:00 24.3 10 Sudeste 19 Sudeste 0 -- -- 49
2018-04-26 18:00:00 24.7 4 Sur 16 Sudeste 0 -- -- 48
2018-04-26 17:00:00 24.2 8 Sudeste 19 Este 0 -- -- 50
2018-04-26 16:00:00 23 13 Sudeste 32 Sudeste 0 -- -- 55
2018-04-26 15:00:00 21.3 17 Sudeste 29 Este 0 -- -- 63
2018-04-26 14:00:00 19.7 15 Este 26 Este 0 -- -- 71
2018-04-26 13:00:00 21.7 13 Este 22 Este 0 -- -- 65
2018-04-26 12:00:00 23.1 14 Nordeste 26 Nordeste 0 -- -- 65
2018-04-26 11:00:00 21.6 14 Nordeste 24 Nordeste 0 -- -- 66
2018-04-26 10:00:00 19.4 5 Norte 9 Norte 0 -- -- 66
2018-04-26 09:00:00 16.2 2 Oeste 5 Oeste 0 -- -- 81
2018-04-26 08:00:00 13.3 0 Calma 4 Sudeste 0 -- -- 93
2018-04-26 07:00:00 13 2 Sudoeste 6 Sudeste 0 -- -- 92
2018-04-26 06:00:00 13.1 3 Sudoeste 5 Sur 0 -- -- 92
2018-04-26 05:00:00 13.3 3 Sur 8 Sur 0 -- -- 91
2018-04-26 04:00:00 13.8 5 Sur 6 Sur 0 -- -- 88
2018-04-26 03:00:00 14.9 3 Sudeste 6 Oeste 0 -- -- 87
2018-04-26 02:00:00 15.6 5 Noroeste 10 Noroeste 0 -- -- 86
2018-04-26 01:00:00 15.4 3 Oeste 5 Nordeste 0 -- -- 86
2018-04-26 00:00:00 15.9 0 Calma 5 Sudeste 0 -- -- 83
2018-04-25 23:00:00 16.6 0 Calma 8 Norte 0 -- -- 81
2018-04-25 22:00:00 17.6 5 Nordeste 10 Nordeste 0 -- -- 77
2018-04-25 21:00:00 18.7 5 Norte 15 Nordeste 0 -- -- 72
2018-04-25 20:00:00 19.7 11 Nordeste 19 Nordeste 0 -- -- 67
2018-04-25 19:00:00 20.8 13 Nordeste 24 Nordeste 0 -- -- 61
2018-04-25 18:00:00 22 15 Nordeste 28 Nordeste 0 -- -- 59
2018-04-25 17:00:00 23.5 12 Nordeste 25 Nordeste 0 -- -- 52
2018-04-25 16:00:00 23.7 12 Norte 22 Norte 0 -- -- 52
2018-04-25 15:00:00 23.2 8 Norte 19 Nordeste 0 -- -- 49
2018-04-25 14:00:00 23.1 9 Nordeste 21 Este 0 -- -- 49
2018-04-25 13:00:00 22.5 12 Nordeste 24 Nordeste 0 -- -- 51
2018-04-25 12:00:00 21.6 5 Norte 15 Nordeste 0 -- -- 55
2018-04-25 11:00:00 18.8 2 Noroeste 8 Oeste 0 -- -- 59
2018-04-25 10:00:00 16 2 Oeste 8 Sur 0 -- -- 72
2018-04-25 09:00:00 13.6 3 Sur 6 Sudoeste 0 -- -- 87
2018-04-25 08:00:00 11.9 2 Sur 6 Sur 0 -- -- 91
2018-04-25 07:00:00 11.4 5 Sur 7 Sur 0 -- -- 90
2018-04-25 06:00:00 11.7 6 Sur 9 Sur 0 -- -- 90
2018-04-25 05:00:00 11.8 2 Sur 9 Sur 0 -- -- 89
2018-04-25 04:00:00 12.4 4 Sur 14 Sur 0 -- -- 89
2018-04-25 03:00:00 11.8 6 Sur 10 Sur 0 -- -- 91
2018-04-25 02:00:00 11.1 4 Sur 5 Sudeste 0 -- -- 89
2018-04-25 01:00:00 11.8 0 Calma 9 Sur 0 -- -- 87
2018-04-25 00:00:00 13.1 3 Sur 8 Nordeste 0 -- -- 82
2018-04-24 23:00:00 15.3 5 Nordeste 10 Nordeste 0 -- -- 79
2018-04-24 22:00:00 16.7 4 Nordeste 9 Nordeste 0 -- -- 73
2018-04-24 21:00:00 18.6 7 Nordeste 15 Nordeste 0 -- -- 67
2018-04-24 20:00:00 21.2 9 Nordeste 19 Nordeste 0 -- -- 60
2018-04-24 19:00:00 22.9 11 Nordeste 20 Nordeste 0 -- -- 54
2018-04-24 18:00:00 23.4 12 Norte 21 Nordeste 0 -- -- 52
2018-04-24 17:00:00 22.6 14 Nordeste 23 Norte 0 -- -- 58
2018-04-24 16:00:00 23.2 11 Nordeste 23 Este 0 -- -- 57
2018-04-24 15:00:00 23.4 12 Nordeste 22 Nordeste 0 -- -- 54
2018-04-24 14:00:00 22.8 11 Nordeste 25 Nordeste 0 -- -- 54
2018-04-24 13:00:00 22.5 11 Nordeste 23 Nordeste 0 -- -- 56
2018-04-24 12:00:00 21.9 13 Nordeste 22 Nordeste 0 -- -- 61
2018-04-24 11:00:00 19.3 4 Sudoeste 14 Sur 0 -- -- 68
2018-04-24 10:00:00 17.3 3 Este 11 Sudeste 0 -- -- 75
2018-04-24 09:00:00 15.5 3 Norte 23 Nordeste 0 -- -- 79
2018-04-24 08:00:00 14.9 7 Norte 12 Norte 0 -- -- 77
2018-04-24 07:00:00 14.2 0 Calma 15 Sur 0 -- -- 76
2018-04-24 06:00:00 13.3 4 Sur 9 Sur 0 -- -- 81
2018-04-24 05:00:00 13.1 3 Sur 9 Sur 0 -- -- 81
2018-04-24 04:00:00 12.1 6 Sur 10 Sur 0 -- -- 87
2018-04-24 03:00:00 10.5 0 Calma 4 Sur 0 -- -- 89
2018-04-24 02:00:00 10.2 2 Sudoeste 4 Sudoeste 0 -- -- 86
2018-04-24 01:00:00 11 3 Sudoeste 5 Sudoeste 0 -- -- 83
2018-04-24 00:00:00 12 2 Sudeste 6 Este 0 -- -- 80
2018-04-23 23:00:00 13.7 0 Calma 5 Sur 0 -- -- 73
2018-04-23 22:00:00 16.2 0 Calma 14 Nordeste 0 -- -- 66
2018-04-23 21:00:00 18.8 7 Nordeste 21 Nordeste 0 -- -- 56
2018-04-23 20:00:00 22.3 11 Nordeste 19 Nordeste 0 -- -- 46
2018-04-23 19:00:00 24.2 11 Este 23 Este 0 -- -- 43
2018-04-23 18:00:00 24.9 12 Este 23 Este 0 -- -- 42
2018-04-23 17:00:00 24.9 8 Nordeste 23 Este 0 -- -- 42
2018-04-23 16:00:00 25.9 13 Nordeste 28 Nordeste 0 -- -- 40
2018-04-23 15:00:00 25.8 12 Este 26 Sudeste 0 -- -- 40
2018-04-23 14:00:00 25 11 Sudeste 26 Sudeste 0 -- -- 41
2018-04-23 13:00:00 24.5 11 Este 20 Sudeste 0 -- -- 41
2018-04-23 12:00:00 22.5 7 Noroeste 14 Norte 0 -- -- 52
2018-04-23 11:00:00 20.8 5 Noroeste 10 Noroeste 0 -- -- 58
2018-04-23 10:00:00 18.1 5 Sur 12 Sudoeste 0 -- -- 68
2018-04-23 09:00:00 16.3 6 Sudoeste 12 Sudoeste 0 -- -- 77
2018-04-23 08:00:00 12.3 0 Calma 5 Sur 0 -- -- 90
2018-04-23 07:00:00 12.6 4 Sur 11 Sur 0 -- -- 88
2018-04-23 06:00:00 12.8 6 Sur 12 Sur 0 -- -- 89
2018-04-23 05:00:00 12.3 3 Sudeste 8 Sudoeste 0 -- -- 91
2018-04-23 04:00:00 12.1 0 Calma 2 Sur 0 -- -- 91
2018-04-23 03:00:00 11.5 2 Sudeste 4 Sur 0 -- -- 89
2018-04-23 02:00:00 11.7 2 Sur 5 Sudeste 0 -- -- 87
2018-04-23 01:00:00 12.2 2 Sur 4 Sur 0 -- -- 86
2018-04-23 00:00:00 13 0 Calma 6 Sudeste 0 -- -- 81
2018-04-22 23:00:00 14.8 3 Nordeste 11 Nordeste 0 -- -- 79
2018-04-22 22:00:00 16 8 Nordeste 15 Nordeste 0 -- -- 77
2018-04-22 21:00:00 17.4 10 Nordeste 24 Nordeste 0 -- -- 71
2018-04-22 20:00:00 19.6 13 Nordeste 24 Nordeste 0 -- -- 60
2018-04-22 19:00:00 22.5 13 Este 26 Nordeste 0 -- -- 43
2018-04-22 18:00:00 23.6 13 Este 31 Este 0 -- -- 42
2018-04-22 17:00:00 23.7 12 Este 24 Nordeste 0 -- -- 42
2018-04-22 16:00:00 24.5 14 Este 25 Este 0 -- -- 41
2018-04-22 15:00:00 25.1 13 Este 26 Norte 0 -- -- 44
2018-04-22 14:00:00 25.2 15 Nordeste 28 Nordeste 0 -- -- 43
2018-04-22 13:00:00 24.1 15 Nordeste 27 Norte 0 -- -- 47
2018-04-22 12:00:00 22.5 9 Norte 17 Norte 0 -- -- 53
2018-04-22 11:00:00 20.1 4 Norte 10 Sudoeste 0 -- -- 62
2018-04-22 10:00:00 17.5 6 Sudoeste 11 Sudoeste 0 -- -- 68
2018-04-22 09:00:00 14.3 5 Sur 10 Sur 0 -- -- 91
2018-04-22 08:00:00 10.8 0 Calma 6 Sudoeste 0 -- -- 94
2018-04-22 07:00:00 11.1 2 Sudoeste 8 Sur 0 -- -- 93
2018-04-22 06:00:00 11.2 2 Sudoeste 6 Sur 0 -- -- 92
2018-04-22 05:00:00 12.1 2 Sur 4 Sudeste 0 -- -- 91
2018-04-22 04:00:00 12.9 0 Calma 4 Sur 0 -- -- 92
2018-04-22 03:00:00 12.8 5 Oeste 10 Oeste 0 -- -- 92
2018-04-22 02:00:00 12.5 0 Calma 6 Sur 0 -- -- 91
2018-04-22 01:00:00 12.2 4 Sur 8 Sudeste 0 -- -- 90
2018-04-22 00:00:00 13.1 2 Sudeste 9 Norte 0 -- -- 85